Time;durP1;ratioP1;P1;durP2;ratioP2;P2;SDS_P1;SDS_P2;PMS_P1;PMS_P2;Temp;Humidity;BMP_temperature;BMP_pressure;BME280_temperature;BME280_humidity;BME280_pressure;Samples;Min_cycle;Max_cycle;Signal;HPM_P1;HPM_P2
2024/04/13 00:02:06;;;;;;;;;;;;;;;20.19;42.23;96888.66;11245574;26;3484;-63
2024/04/13 00:07:07;;;;;;;;;;;;;;;20.19;41.81;96883.41;11247740;26;3213;-63
2024/04/13 00:12:07;;;;;;;;;;;;;;;20.19;42.14;96880.78;11239074;26;2941;-63
2024/04/13 00:17:07;;;;;;;;;;;;;;;20.18;42.17;96881.75;11236399;26;2971;-63
2024/04/13 00:22:08;;;;;;;;;;;;;;;20.18;42.23;96873.88;11205990;26;3090;-63
2024/04/13 00:27:08;;;;;;;;;;;;;;;20.18;41.99;96863.34;11232305;26;3109;-63
2024/04/13 00:32:08;;;;;;;;;;;;;;;20.18;42.03;96873.06;11242382;26;3206;-63
2024/04/13 00:37:08;;;;;;;;;;;;;;;20.18;41.77;96870.44;11234739;26;3118;-63
2024/04/13 00:42:09;;;;;;;;;;;;;;;20.18;42.15;96870.44;11233026;26;3563;-63
2024/04/13 00:47:09;;;;;;;;;;;;;;;20.17;41.65;96858.31;11204716;26;3207;-63
2024/04/13 00:52:11;;;;;;;;;;;;;;;20.17;41.66;96867.00;11207209;26;3155;-63
2024/04/13 00:57:12;;;;;;;;;;;;;;;20.17;41.41;96864.34;11236681;26;2925;-63
2024/04/13 01:02:13;;;;;;;;;;;;;;;20.17;41.83;96850.41;11205188;26;2836;-63
2024/04/13 01:07:13;;;;;;;;;;;;;;;20.16;42.02;96856.72;11242239;26;3007;-63
2024/04/13 01:12:13;;;;;;;;;;;;;;;20.16;42.12;96860.16;11211057;26;2815;-63
2024/04/13 01:17:14;;;;;;;;;;;;;;;20.15;41.82;96866.44;11242811;26;3023;-63
2024/04/13 01:22:15;;;;;;;;;;;;;;;20.15;41.66;96869.06;11233874;26;3085;-63
2024/04/13 01:27:15;;;;;;;;;;;;;;;20.15;42.09;96869.06;11233904;26;3179;-63
2024/04/13 01:32:16;;;;;;;;;;;;;;;20.15;41.40;96878.81;11229583;26;3125;-63
2024/04/13 01:37:17;;;;;;;;;;;;;;;20.15;41.64;96874.34;11232823;26;3470;-63
2024/04/13 01:42:17;;;;;;;;;;;;;;;20.15;41.74;96870.94;11236058;26;2991;-63
2024/04/13 01:47:18;;;;;;;;;;;;;;;20.13;41.59;96871.16;11230495;26;3224;-63
2024/04/13 01:52:20;;;;;;;;;;;;;;;20.15;41.49;96870.94;11239567;26;3209;-62
2024/04/13 01:57:20;;;;;;;;;;;;;;;20.14;41.59;96853.53;11196015;26;2835;-63
2024/04/13 02:02:20;;;;;;;;;;;;;;;20.14;41.80;96869.31;11237020;26;3204;-63
2024/04/13 02:07:22;;;;;;;;;;;;;;;20.14;41.94;96866.69;11232644;26;2931;-62
2024/04/13 02:12:22;;;;;;;;;;;;;;;20.13;41.29;96852.72;11229886;26;2926;-62
2024/04/13 02:17:22;;;;;;;;;;;;;;;20.13;41.18;96857.22;11204308;26;3183;-63
2024/04/13 02:22:23;;;;;;;;;;;;;;;20.12;41.44;96855.59;11229061;26;3302;-63
2024/04/13 02:27:23;;;;;;;;;;;;;;;20.13;41.41;96859.84;11226357;26;3200;-62
2024/04/13 02:32:23;;;;;;;;;;;;;;;20.13;41.66;96865.13;11234152;26;3088;-62
2024/04/13 02:37:24;;;;;;;;;;;;;;;20.13;41.63;96859.84;11218882;26;3175;-63
2024/04/13 02:42:24;;;;;;;;;;;;;;;20.12;41.64;96858.25;11224417;26;3003;-62
2024/04/13 02:47:25;;;;;;;;;;;;;;;20.13;41.32;96865.13;11243398;26;3230;-63
2024/04/13 02:52:26;;;;;;;;;;;;;;;20.12;41.32;96864.31;11236655;26;3097;-63
2024/04/13 02:57:26;;;;;;;;;;;;;;;20.12;41.22;96872.22;11232685;26;3105;-63
2024/04/13 03:02:26;;;;;;;;;;;;;;;20.12;41.53;96876.66;11239902;26;3397;-62
2024/04/13 03:07:27;;;;;;;;;;;;;;;20.12;41.26;96876.66;11255554;26;2929;-63
2024/04/13 03:12:27;;;;;;;;;;;;;;;20.13;41.25;96875.66;11214349;26;3204;-63
2024/04/13 03:17:28;;;;;;;;;;;;;;;20.11;41.45;96889.03;11237043;26;3072;-63
2024/04/13 03:22:29;;;;;;;;;;;;;;;20.10;41.14;96881.38;11239045;26;3076;-62
2024/04/13 03:27:29;;;;;;;;;;;;;;;20.11;41.25;96890.88;11225810;26;3109;-61
2024/04/13 03:32:32;;;;;;;;;;;;;;;20.08;41.51;96886.91;11235668;26;2970;-63
2024/04/13 03:37:32;;;;;;;;;;;;;;;20.09;41.31;96888.47;11236251;26;3078;-62
2024/04/13 03:42:32;;;;;;;;;;;;;;;20.10;41.04;96886.66;11240897;26;3064;-63
2024/04/13 03:47:32;;;;;;;;;;;;;;;20.09;41.22;96900.88;11242610;26;3022;-62
2024/04/13 03:52:33;;;;;;;;;;;;;;;20.09;41.47;96898.22;11240896;26;3498;-63
2024/04/13 03:57:34;;;;;;;;;;;;;;;20.09;40.96;96893.75;11241270;26;2842;-63
2024/04/13 04:02:37;;;;;;;;;;;;;;;20.09;40.82;96896.38;11235681;26;3207;-63
2024/04/13 04:07:37;;;;;;;;;;;;;;;20.08;41.24;96894.78;11238949;26;3112;-62
2024/04/13 04:12:39;;;;;;;;;;;;;;;20.09;41.47;96892.97;11237268;26;3108;-63
2024/04/13 04:17:40;;;;;;;;;;;;;;;20.08;41.31;96889.53;11235031;26;2831;-63
2024/04/13 04:22:41;;;;;;;;;;;;;;;20.08;41.49;96892.16;11221195;26;3077;-62
2024/04/13 04:27:41;;;;;;;;;;;;;;;20.07;41.28;96887.91;11234651;26;3116;-61
2024/04/13 04:32:42;;;;;;;;;;;;;;;20.08;41.00;96891.34;11208751;26;3336;-62
2024/04/13 04:37:42;;;;;;;;;;;;;;;20.08;40.78;96897.41;11235178;26;3090;-62
2024/04/13 04:42:43;;;;;;;;;;;;;;;20.07;41.29;96898.44;11237970;26;3105;-62
2024/04/13 04:47:44;;;;;;;;;;;;;;;20.09;41.16;96908.75;11206129;26;3150;-61
2024/04/13 04:52:45;;;;;;;;;;;;;;;20.08;40.90;96904.53;11236048;26;3080;-62
2024/04/13 04:57:45;;;;;;;;;;;;;;;20.07;40.91;96902.94;11231586;26;3116;-62
2024/04/13 05:02:45;;;;;;;;;;;;;;;20.07;41.11;96892.41;11235587;26;3088;-62
2024/04/13 05:07:45;;;;;;;;;;;;;;;20.07;41.30;96895.03;11204929;26;2735;-62
2024/04/13 05:12:46;;;;;;;;;;;;;;;20.08;41.06;96894.00;11233809;26;2925;-62
2024/04/13 05:17:46;;;;;;;;;;;;;;;20.07;40.81;96895.81;11243640;26;3103;-62
2024/04/13 05:22:47;;;;;;;;;;;;;;;20.06;41.22;96891.59;11234005;26;3367;-62
2024/04/13 05:27:47;;;;;;;;;;;;;;;20.07;40.89;96910.84;11238786;26;2972;-62
2024/04/13 05:32:48;;;;;;;;;;;;;;;20.06;40.94;96906.59;11234604;26;2839;-62
2024/04/13 05:37:48;;;;;;;;;;;;;;;20.06;41.11;96909.22;11232433;26;3100;-62
2024/04/13 05:42:49;;;;;;;;;;;;;;;20.05;40.84;96905.78;11226710;26;3093;-62
2024/04/13 05:47:49;;;;;;;;;;;;;;;20.06;40.79;96904.78;11207831;26;3108;-62
2024/04/13 05:52:49;;;;;;;;;;;;;;;20.06;40.82;96911.84;11242684;26;3101;-62
2024/04/13 05:57:50;;;;;;;;;;;;;;;20.06;40.64;96911.84;11236101;26;2993;-62
2024/04/13 06:02:50;;;;;;;;;;;;;;;20.06;40.80;96909.22;11236944;26;3396;-62
2024/04/13 06:07:50;;;;;;;;;;;;;;;20.07;41.08;96911.59;11203188;26;3085;-62
2024/04/13 06:12:50;;;;;;;;;;;;;;;20.06;40.84;96919.75;11232217;26;2936;-63
2024/04/13 06:17:51;;;;;;;;;;;;;;;20.06;40.76;96917.13;11208880;26;3105;-62
2024/04/13 06:22:51;;;;;;;;;;;;;;;20.06;41.23;96906.59;11248192;26;2929;-61
2024/04/13 06:27:51;;;;;;;;;;;;;;;20.07;40.98;96900.31;11183469;26;2969;-62
2024/04/13 06:32:53;;;;;;;;;;;;;;;20.08;40.99;96904.53;11230221;26;3204;-62
2024/04/13 06:37:53;;;;;;;;;;;;;;;20.11;40.97;96899.56;11227997;26;3045;-63
2024/04/13 06:42:53;;;;;;;;;;;;;;;20.13;41.24;96901.97;11232457;26;2977;-68
2024/04/13 06:47:54;;;;;;;;;;;;;;;20.17;41.96;96897.81;11232501;26;3630;-63
2024/04/13 06:52:54;;;;;;;;;;;;;;;20.18;42.47;96894.13;11213434;26;2975;-66
2024/04/13 06:57:54;;;;;;;;;;;;;;;20.21;42.51;96901.56;11238998;26;2911;-61
2024/04/13 07:02:54;;;;;;;;;;;;;;;20.22;42.31;96892.63;11216125;26;3218;-66
2024/04/13 07:07:55;;;;;;;;;;;;;;;20.23;42.24;96896.88;11238218;26;3061;-61
2024/04/13 07:12:55;;;;;;;;;;;;;;;20.22;42.83;96901.31;11240005;26;2906;-65
2024/04/13 07:17:55;;;;;;;;;;;;;;;20.24;42.76;96903.72;11245355;26;2933;-67
2024/04/13 07:22:56;;;;;;;;;;;;;;;20.23;42.63;96897.66;11236994;26;3084;-64
2024/04/13 07:27:56;;;;;;;;;;;;;;;20.25;42.68;96900.06;11226007;26;2566;-65
2024/04/13 07:32:57;;;;;;;;;;;;;;;20.26;42.76;96906.91;11229697;26;3478;-61
2024/04/13 07:37:57;;;;;;;;;;;;;;;20.26;42.59;96897.16;11229909;26;3136;-63
2024/04/13 07:42:57;;;;;;;;;;;;;;;20.28;43.02;96891.66;11241319;26;2991;-63
2024/04/13 07:47:58;;;;;;;;;;;;;;;20.29;43.01;96880.09;11227776;26;2979;-64
2024/04/13 07:52:58;;;;;;;;;;;;;;;20.27;42.60;96887.44;11202067;26;3024;-64
2024/04/13 07:57:58;;;;;;;;;;;;;;;20.27;42.47;96890.06;11225741;26;2948;-64
2024/04/13 08:02:59;;;;;;;;;;;;;;;20.26;43.01;96893.72;11204790;26;2980;-65
2024/04/13 08:07:59;;;;;;;;;;;;;;;20.26;42.93;96883.19;11230273;26;2943;-65
2024/04/13 08:13:01;;;;;;;;;;;;;;;20.25;42.67;96885.06;11230746;26;2921;-66
2024/04/13 08:18:01;;;;;;;;;;;;;;;20.26;42.98;96883.19;11229982;26;3482;-69
2024/04/13 08:23:05;;;;;;;;;;;;;;;20.28;42.63;96891.66;11184529;26;3030;-67
2024/04/13 08:28:05;;;;;;;;;;;;;;;20.29;43.11;96885.34;11227687;26;2997;-75
2024/04/13 08:33:06;;;;;;;;;;;;;;;20.32;43.55;96884.06;11232650;26;3211;-70
2024/04/13 08:38:06;;;;;;;;;;;;;;;20.31;43.81;96870.09;11236153;26;2917;-70
2024/04/13 08:43:06;;;;;;;;;;;;;;;20.31;43.60;96870.09;11191074;26;3112;-71
2024/04/13 08:48:07;;;;;;;;;;;;;;;20.33;43.92;96877.75;11229319;26;3034;-70
2024/04/13 08:53:07;;;;;;;;;;;;;;;20.32;44.16;96869.06;11207509;26;3109;-70
2024/04/13 08:58:07;;;;;;;;;;;;;;;20.32;43.54;96863.78;11197674;26;3661;-70
2024/04/13 09:03:10;;;;;;;;;;;;;;;20.33;43.88;96867.22;11227861;26;3044;-70
2024/04/13 09:08:11;;;;;;;;;;;;;;;20.33;43.97;96868.03;11206167;26;3115;-70
2024/04/13 09:13:11;;;;;;;;;;;;;;;20.33;43.74;96869.84;11203103;26;3105;-71
2024/04/13 09:18:14;;;;;;;;;;;;;;;20.33;44.06;96865.41;11237436;26;3152;-72
2024/04/13 09:23:14;;;;;;;;;;;;;;;20.34;44.00;96858.28;11233271;26;3027;-70
2024/04/13 09:28:14;;;;;;;;;;;;;;;20.34;43.49;96859.06;11196984;26;3092;-71
2024/04/13 09:33:14;;;;;;;;;;;;;;;20.35;43.88;96851.97;11229807;26;3128;-71
2024/04/13 09:38:15;;;;;;;;;;;;;;;20.36;43.29;96848.31;11241109;26;3201;-71
2024/04/13 09:43:22;;;;;;;;;;;;;;;20.35;43.27;96836.19;11238319;26;3141;-71
2024/04/13 09:48:22;;;;;;;;;;;;;;;20.36;43.79;96835.91;11177553;26;3414;-71
2024/04/13 09:53:22;;;;;;;;;;;;;;;20.38;43.30;96831.19;11225958;26;2835;-71
2024/04/13 09:58:22;;;;;;;;;;;;;;;20.38;43.34;96831.19;11231490;26;3076;-71
2024/04/13 10:03:23;;;;;;;;;;;;;;;20.38;43.40;96827.78;11209238;26;3175;-70
2024/04/13 10:08:23;;;;;;;;;;;;;;;20.42;43.38;96818.38;11231735;26;3076;-69
2024/04/13 10:13:34;;;;;;;;;;;;;;;20.42;42.97;96806.00;11192245;26;3014;-69
2024/04/13 10:18:34;;;;;;;;;;;;;;;20.43;43.01;96804.94;11237254;26;3194;-70
2024/04/13 10:23:40;;;;;;;;;;;;;;;20.43;42.66;96802.31;11234905;26;3113;-70
2024/04/13 10:28:41;;;;;;;;;;;;;;;20.43;42.93;96794.41;11196266;26;2939;-70
2024/04/13 10:33:42;;;;;;;;;;;;;;;20.46;42.73;96786.03;11216136;26;3341;-70
2024/04/13 10:38:43;;;;;;;;;;;;;;;20.46;42.49;96770.22;11231019;26;3080;-71
2024/04/13 10:43:43;;;;;;;;;;;;;;;20.47;42.20;96782.34;11223450;26;3209;-70
2024/04/13 10:48:44;;;;;;;;;;;;;;;20.47;42.15;96777.06;11224171;26;3871;-70
2024/04/13 10:53:44;;;;;;;;;;;;;;;20.48;42.58;96772.59;11206665;26;2995;-70
2024/04/13 10:58:44;;;;;;;;;;;;;;;20.48;42.89;96762.88;11225301;26;3131;-70
2024/04/13 11:03:44;;;;;;;;;;;;;;;20.50;42.69;96755.50;11224930;26;3262;-69
2024/04/13 11:08:45;;;;;;;;;;;;;;;20.51;43.00;96748.38;11238410;26;3098;-70
2024/04/13 11:13:45;;;;;;;;;;;;;;;20.51;43.44;96738.66;11236025;26;3440;-70
2024/04/13 11:18:45;;;;;;;;;;;;;;;20.54;43.15;96738.16;11237533;26;3214;-71
2024/04/13 11:23:46;;;;;;;;;;;;;;;20.55;43.24;96729.19;11231022;26;3223;-71
2024/04/13 11:28:46;;;;;;;;;;;;;;;20.58;43.57;96720.00;11227360;26;2949;-71
2024/04/13 11:33:46;;;;;;;;;;;;;;;20.60;43.38;96716.09;11235257;26;3226;-68
2024/04/13 11:38:46;;;;;;;;;;;;;;;20.63;43.57;96710.31;11195794;26;3115;-70
2024/04/13 11:43:53;;;;;;;;;;;;;;;20.66;44.18;96701.91;11228515;26;3318;-71
2024/04/13 11:48:53;;;;;;;;;;;;;;;20.69;44.70;96696.13;11237000;26;2856;-71
2024/04/13 11:53:57;;;;;;;;;;;;;;;20.73;45.14;96689.31;11233737;26;3005;-68
2024/04/13 11:58:57;;;;;;;;;;;;;;;20.73;45.43;96681.41;11207093;26;3585;-67
2024/04/13 12:03:57;;;;;;;;;;;;;;;20.76;45.44;96670.38;11235214;26;2999;-68
2024/04/13 12:08:58;;;;;;;;;;;;;;;20.75;45.52;96671.41;11233677;26;3175;-67
2024/04/13 12:13:58;;;;;;;;;;;;;;;20.75;44.86;96668.00;11232563;26;2998;-69
2024/04/13 12:18:59;;;;;;;;;;;;;;;20.74;45.03;96659.28;11233376;26;3026;-67
2024/04/13 12:23:59;;;;;;;;;;;;;;;20.76;44.55;96654.56;11239365;26;2799;-66
2024/04/13 12:29:00;;;;;;;;;;;;;;;20.77;45.07;96639.56;11241292;26;3136;-74
2024/04/13 12:34:00;;;;;;;;;;;;;;;20.79;44.89;96638.22;11226126;26;2971;-72
2024/04/13 12:39:02;;;;;;;;;;;;;;;20.80;44.95;96624.03;11227679;26;3447;-71
2024/04/13 12:44:02;;;;;;;;;;;;;;;20.81;44.91;96625.59;11229973;26;3128;-69
2024/04/13 12:49:07;;;;;;;;;;;;;;;20.84;45.50;96619.84;11237990;26;3222;-69
2024/04/13 12:54:07;;;;;;;;;;;;;;;20.86;46.04;96617.75;11193993;26;3116;-67
2024/04/13 12:59:07;;;;;;;;;;;;;;;20.88;46.68;96613.00;11206577;26;2974;-68
2024/04/13 13:04:08;;;;;;;;;;;;;;;20.89;46.79;96590.88;11202238;26;3065;-69
2024/04/13 13:09:08;;;;;;;;;;;;;;;20.89;47.23;96590.88;11228211;26;3077;-67
2024/04/13 13:14:08;;;;;;;;;;;;;;;20.91;46.95;96586.16;11231613;26;3108;-69
2024/04/13 13:19:08;;;;;;;;;;;;;;;20.93;47.51;96585.91;11231451;26;2929;-68
2024/04/13 13:24:09;;;;;;;;;;;;;;;20.95;47.99;96583.78;11229493;26;3388;-68
2024/04/13 13:29:09;;;;;;;;;;;;;;;20.98;48.98;96573.53;11201330;26;2945;-66
2024/04/13 13:34:10;;;;;;;;;;;;;;;21.01;48.98;96565.13;11224419;26;3191;-68
2024/04/13 13:39:10;;;;;;;;;;;;;;;21.02;49.02;96558.81;11226305;26;3133;-68
2024/04/13 13:44:10;;;;;;;;;;;;;;;21.02;49.04;96556.19;11223980;26;2999;-68
2024/04/13 13:49:10;;;;;;;;;;;;;;;21.02;48.92;96548.28;11227719;26;3115;-68
2024/04/13 13:54:11;;;;;;;;;;;;;;;21.01;49.37;96535.31;11226418;26;3096;-71
2024/04/13 13:59:11;;;;;;;;;;;;;;;21.03;48.95;96533.25;11198836;26;2974;-71
2024/04/13 14:04:12;;;;;;;;;;;;;;;21.03;49.03;96528.00;11258498;26;3168;-74
2024/04/13 14:09:13;;;;;;;;;;;;;;;21.00;48.86;96523.19;11201937;26;3109;-72
2024/04/13 14:14:13;;;;;;;;;;;;;;;20.98;48.96;96522.66;11193501;26;3126;-73
2024/04/13 14:19:13;;;;;;;;;;;;;;;20.98;48.84;96514.75;11227640;26;3129;-73
2024/04/13 14:24:14;;;;;;;;;;;;;;;20.97;48.58;96510.53;11228334;26;3065;-73
2024/04/13 14:29:14;;;;;;;;;;;;;;;20.96;48.44;96498.41;11229693;26;2890;-73
2024/04/13 14:34:14;;;;;;;;;;;;;;;20.95;48.68;96487.09;11226935;26;3114;-73
2024/04/13 14:39:14;;;;;;;;;;;;;;;20.96;49.18;96480.75;11228098;26;3145;-72
2024/04/13 14:44:15;;;;;;;;;;;;;;;20.95;49.31;96479.19;11239896;26;3117;-73
2024/04/13 14:49:15;;;;;;;;;;;;;;;20.96;49.16;96483.38;11235237;26;3089;-73
2024/04/13 14:54:16;;;;;;;;;;;;;;;20.96;49.50;96474.66;11244522;26;3199;-74
2024/04/13 14:59:16;;;;;;;;;;;;;;;20.96;49.36;96472.84;11234956;26;2916;-72
2024/04/13 15:04:17;;;;;;;;;;;;;;;20.96;49.66;96472.84;11263864;26;3266;-73
2024/04/13 15:09:18;;;;;;;;;;;;;;;20.97;49.50;96468.38;11239215;26;2954;-73
2024/04/13 15:14:18;;;;;;;;;;;;;;;20.97;49.68;96468.38;11241307;26;3037;-74
2024/04/13 15:19:19;;;;;;;;;;;;;;;20.96;49.60;96470.19;11232208;26;3023;-74
2024/04/13 15:24:20;;;;;;;;;;;;;;;20.97;49.96;96476.28;11236148;26;3192;-73
2024/04/13 15:29:20;;;;;;;;;;;;;;;20.97;49.85;96461.25;11236937;26;3077;-74
2024/04/13 15:34:21;;;;;;;;;;;;;;;20.97;50.34;96458.63;11236203;26;3099;-73
2024/04/13 15:39:23;;;;;;;;;;;;;;;20.97;49.93;96452.56;11229772;26;2994;-74
2024/04/13 15:44:25;;;;;;;;;;;;;;;20.98;49.95;96448.84;11233015;26;3100;-73
2024/04/13 15:49:28;;;;;;;;;;;;;;;20.97;50.19;96445.44;11237427;26;3340;-74
2024/04/13 15:54:28;;;;;;;;;;;;;;;20.96;50.33;96433.31;11235107;26;3107;-73
2024/04/13 15:59:28;;;;;;;;;;;;;;;20.97;50.62;96439.38;11234877;26;3198;-74
2024/04/13 16:04:31;;;;;;;;;;;;;;;20.97;50.20;96428.84;11235977;26;2835;-74
2024/04/13 16:09:31;;;;;;;;;;;;;;;20.97;50.69;96429.63;11271032;26;3194;-74
2024/04/13 16:14:31;;;;;;;;;;;;;;;20.97;50.60;96427.00;11237844;26;2991;-73
2024/04/13 16:19:32;;;;;;;;;;;;;;;20.97;50.64;96424.34;11239201;26;2819;-74
2024/04/13 16:24:32;;;;;;;;;;;;;;;20.98;50.59;96425.13;11231699;26;2980;-73
2024/04/13 16:29:33;;;;;;;;;;;;;;;20.97;50.69;96419.09;11228705;26;3188;-73
2024/04/13 16:34:34;;;;;;;;;;;;;;;20.97;50.62;96423.56;11237231;26;3084;-75
2024/04/13 16:39:34;;;;;;;;;;;;;;;20.96;50.77;96414.84;11227644;26;3097;-74
2024/04/13 16:44:34;;;;;;;;;;;;;;;20.96;51.00;96414.84;11225270;26;3306;-74
2024/04/13 16:49:35;;;;;;;;;;;;;;;20.98;50.69;96404.03;11226499;26;3179;-73
2024/04/13 16:54:35;;;;;;;;;;;;;;;20.96;50.99;96401.69;11201245;26;2991;-74
2024/04/13 16:59:35;;;;;;;;;;;;;;;20.95;50.99;96410.66;11198926;26;3192;-75
2024/04/13 17:04:36;;;;;;;;;;;;;;;20.96;50.82;96406.94;11227254;26;3127;-74
2024/04/13 17:09:36;;;;;;;;;;;;;;;20.96;50.80;96414.06;11234895;26;3356;-73
2024/04/13 17:14:36;;;;;;;;;;;;;;;20.95;50.71;96404.59;11229672;26;2949;-74
2024/04/13 17:19:38;;;;;;;;;;;;;;;20.95;50.84;96400.09;11233910;26;3013;-74
2024/04/13 17:24:38;;;;;;;;;;;;;;;20.95;50.94;96397.47;11203838;26;3182;-74
2024/04/13 17:29:38;;;;;;;;;;;;;;;20.95;50.74;96397.47;11236097;26;2925;-74
2024/04/13 17:34:38;;;;;;;;;;;;;;;20.95;50.86;96394.03;11234411;26;3121;-75
2024/04/13 17:39:41;;;;;;;;;;;;;;;20.95;50.63;96394.84;11230632;26;3018;-74
2024/04/13 17:44:41;;;;;;;;;;;;;;;20.94;51.02;96390.59;11237083;26;3202;-73
2024/04/13 17:49:41;;;;;;;;;;;;;;;20.93;50.85;96386.41;11229495;26;2986;-74
2024/04/13 17:54:42;;;;;;;;;;;;;;;20.94;50.99;96387.16;11235439;26;2955;-74
2024/04/13 17:59:42;;;;;;;;;;;;;;;20.93;50.92;96386.41;11209593;26;3010;-74
2024/04/13 18:04:43;;;;;;;;;;;;;;;20.93;51.08;96386.41;11235530;26;3067;-73
2024/04/13 18:09:43;;;;;;;;;;;;;;;20.92;50.74;96390.06;11244354;26;3229;-75
2024/04/13 18:14:43;;;;;;;;;;;;;;;20.93;51.10;96396.16;11237869;26;3014;-74
2024/04/13 18:19:44;;;;;;;;;;;;;;;20.91;51.00;96393.78;11240019;26;3234;-74
2024/04/13 18:24:44;;;;;;;;;;;;;;;20.92;51.00;96390.06;11244215;26;3040;-76
2024/04/13 18:29:44;;;;;;;;;;;;;;;20.91;51.07;96393.78;11231332;26;3109;-74
2024/04/13 18:34:45;;;;;;;;;;;;;;;20.90;50.61;96392.19;11209877;26;3077;-75
2024/04/13 18:39:45;;;;;;;;;;;;;;;20.92;51.00;96397.19;11240852;26;3070;-74
2024/04/13 18:44:45;;;;;;;;;;;;;;;20.92;50.79;96402.44;11236006;26;3199;-75
2024/04/13 18:49:48;;;;;;;;;;;;;;;20.91;50.80;96409.59;11238849;26;3143;-75
2024/04/13 18:54:49;;;;;;;;;;;;;;;20.90;50.90;96405.34;11237160;26;2994;-73
2024/04/13 18:59:49;;;;;;;;;;;;;;;20.89;50.96;96406.41;11241927;26;3116;-74
2024/04/13 19:04:49;;;;;;;;;;;;;;;20.90;50.41;96405.34;11241886;26;3209;-74
2024/04/13 19:09:49;;;;;;;;;;;;;;;20.90;50.84;96399.28;11210011;26;3093;-74
2024/04/13 19:14:50;;;;;;;;;;;;;;;20.88;50.62;96404.81;11237316;26;2819;-73
2024/04/13 19:19:51;;;;;;;;;;;;;;;20.89;50.54;96403.78;11233751;26;3220;-74
2024/04/13 19:24:51;;;;;;;;;;;;;;;20.88;50.26;96402.19;11242224;26;3189;-74
2024/04/13 19:29:52;;;;;;;;;;;;;;;20.87;50.47;96397.19;11238713;26;2926;-75
2024/04/13 19:34:52;;;;;;;;;;;;;;;20.87;50.20;96397.19;11213253;26;3050;-73
2024/04/13 19:39:52;;;;;;;;;;;;;;;20.87;50.61;96402.44;11235966;26;2916;-74
2024/04/13 19:44:53;;;;;;;;;;;;;;;20.86;50.58;96401.66;11240446;26;2866;-75
2024/04/13 19:49:53;;;;;;;;;;;;;;;20.86;50.21;96401.66;11239679;26;3246;-73
2024/04/13 19:54:53;;;;;;;;;;;;;;;20.86;50.25;96404.28;11217795;26;2813;-75
2024/04/13 19:59:54;;;;;;;;;;;;;;;20.85;50.50;96400.09;11216715;26;3155;-74
2024/04/13 20:04:54;;;;;;;;;;;;;;;20.87;50.02;96392.72;11234925;26;3106;-75
2024/04/13 20:09:54;;;;;;;;;;;;;;;20.86;50.35;96391.09;11248849;26;2923;-70
2024/04/13 20:20:14;;;;;;;;;;;;;;;20.86;50.01;96398.22;11233512;26;3097;-74
2024/04/13 20:25:14;;;;;;;;;;;;;;;20.87;49.87;96394.53;11237195;26;3220;-72
2024/04/13 20:30:15;;;;;;;;;;;;;;;20.85;50.02;96391.38;11232839;26;3368;-74
2024/04/13 20:35:16;;;;;;;;;;;;;;;20.86;50.05;96395.59;11192522;26;3197;-73
2024/04/13 20:40:16;;;;;;;;;;;;;;;20.85;49.87;96394.00;11226969;26;2948;-74
2024/04/13 20:45:16;;;;;;;;;;;;;;;20.84;49.77;96401.13;11227230;26;3200;-73
2024/04/13 20:50:16;;;;;;;;;;;;;;;20.84;49.99;96395.84;11233152;26;3198;-73
2024/04/13 20:55:17;;;;;;;;;;;;;;;20.83;49.97;96386.38;11242943;26;2838;-73
2024/04/13 21:00:17;;;;;;;;;;;;;;;20.83;49.89;96386.38;11235743;26;2908;-74
2024/04/13 21:05:17;;;;;;;;;;;;;;;20.83;49.53;96389.00;11224689;26;3051;-73
2024/04/13 21:10:17;;;;;;;;;;;;;;;20.83;49.40;96375.03;11237229;26;2902;-73
2024/04/13 21:15:18;;;;;;;;;;;;;;;20.82;49.61;96381.34;11236216;26;3236;-74
2024/04/13 21:20:18;;;;;;;;;;;;;;;20.81;49.59;96380.53;11226782;26;3220;-73
2024/04/13 21:25:19;;;;;;;;;;;;;;;20.81;49.26;96372.63;11225104;26;3110;-73
2024/04/13 21:30:19;;;;;;;;;;;;;;;20.80;49.22;96376.34;11238000;26;2527;-74
2024/04/13 21:35:20;;;;;;;;;;;;;;;20.80;49.50;96368.44;11230797;26;2967;-72
2024/04/13 21:40:20;;;;;;;;;;;;;;;20.80;49.47;96373.72;11204183;26;3096;-73
2024/04/13 21:45:20;;;;;;;;;;;;;;;20.80;49.28;96362.38;11232522;26;3016;-73
2024/04/13 21:50:23;;;;;;;;;;;;;;;20.80;48.96;96360.53;11236092;26;3010;-73
2024/04/13 21:55:23;;;;;;;;;;;;;;;20.80;49.12;96354.47;11203150;26;3019;-72
2024/04/13 22:00:24;;;;;;;;;;;;;;;20.79;48.85;96343.13;11205324;26;2905;-73
2024/04/13 22:05:24;;;;;;;;;;;;;;;20.77;49.14;96341.81;11238479;26;2989;-72
2024/04/13 22:10:24;;;;;;;;;;;;;;;20.79;48.91;96347.63;11233719;26;2811;-73
2024/04/13 22:15:25;;;;;;;;;;;;;;;20.79;48.93;96337.09;11217318;26;2830;-74
2024/04/13 22:20:25;;;;;;;;;;;;;;;20.78;48.68;96336.28;11196440;26;3231;-72
2024/04/13 22:25:27;;;;;;;;;;;;;;;20.77;48.50;96334.69;11217206;26;3232;-73
2024/04/13 22:30:28;;;;;;;;;;;;;;;20.77;48.56;96342.59;11225692;26;3002;-73
2024/04/13 22:35:29;;;;;;;;;;;;;;;20.78;48.56;96330.22;11224723;26;2921;-73
2024/04/13 22:40:29;;;;;;;;;;;;;;;20.77;48.84;96336.56;11198567;26;3239;-73
2024/04/13 22:45:29;;;;;;;;;;;;;;;20.77;48.70;96329.41;11252756;26;3219;-72
2024/04/13 22:50:29;;;;;;;;;;;;;;;20.77;48.28;96329.41;11234294;26;3218;-73
2024/04/13 22:55:30;;;;;;;;;;;;;;;20.76;48.17;96319.94;11227422;26;3084;-72
2024/04/13 23:00:30;;;;;;;;;;;;;;;20.75;48.16;96323.63;11220795;26;3174;-72
2024/04/13 23:05:30;;;;;;;;;;;;;;;20.74;48.27;96322.06;11239351;26;3203;-72
2024/04/13 23:10:31;;;;;;;;;;;;;;;20.76;48.38;96316.50;11244660;26;3137;-72
2024/04/13 23:15:31;;;;;;;;;;;;;;;20.74;47.91;96314.16;11233478;26;2973;-73
2024/04/13 23:20:31;;;;;;;;;;;;;;;20.75;48.21;96304.41;11238082;26;3131;-72
2024/04/13 23:25:33;;;;;;;;;;;;;;;20.74;48.20;96303.63;11236780;26;2823;-73
2024/04/13 23:30:33;;;;;;;;;;;;;;;20.74;48.21;96293.06;11241064;26;2933;-72
2024/04/13 23:35:34;;;;;;;;;;;;;;;20.74;48.14;96287.81;11237796;26;3260;-71
2024/04/13 23:40:35;;;;;;;;;;;;;;;20.73;47.68;96291.47;11235446;26;3061;-71
2024/04/13 23:45:35;;;;;;;;;;;;;;;20.73;48.03;96291.47;11241556;26;2507;-72
2024/04/13 23:50:36;;;;;;;;;;;;;;;20.72;47.66;96284.63;11175146;26;3094;-72
2024/04/13 23:55:37;;;;;;;;;;;;;;;20.73;47.70;96272.25;11239719;26;3225;-71
